Thassos I — SVA2081 — position and weather

sailwx.info

Track history (hours):
 
Tides and Currents Weather Stations Pressure Air Temp Water Temp Dewpoint Dewpoint Depression Visibility Wind Speed Wind Dir Waves Ship Positions

Thassos I

Last reported at 2017-Nov-19 09:24 UTC. Time now 2017-Nov-19 16:05 UTC.
Position N 40°47' E 024°42'.

Length 98 m; draft 2.4 m.

Type: Passenger vessel. MMSI: 239361400.

Date/timePositionNaut miles runAvg speedWind from/ knotsBaromVisibWave heightAir tempDewpointWater temp
2017-Nov-19 09:24N 40°47' E 024°42'4 9.2
2017-Nov-19 09:00N 40°50' E 024°41'2 3.0
2017-Nov-19 08:30N 40°51' E 024°42'1 1.5
2017-Nov-19 08:00N 40°52' E 024°41'5 9.9
2017-Nov-19 07:30N 40°47' E 024°42'0 0.0
2017-Nov-19 07:00N 40°47' E 024°42'3 6.5
2017-Nov-19 06:30N 40°50' E 024°41'2 3.5
2017-Nov-19 06:00N 40°51' E 024°42'1 1.3
2017-Nov-19 05:30N 40°52' E 024°41'5 9.8
2017-Nov-19 05:00N 40°47' E 024°42'2 3.0
2017-Nov-19 04:30N 40°48' E 024°41'3 6.7
2017-Nov-19 04:00N 40°51' E 024°42'0 0.0
2017-Nov-19 03:30N 40°51' E 024°42'0 0.0
2017-Nov-18 15:32N 40°52' E 024°42'010.4
2017-Nov-18 15:30N 40°52' E 024°41'5 9.7
2017-Nov-18 15:00N 40°47' E 024°42'0 0.1
2017-Nov-18 14:30N 40°47' E 024°42'0 0.0
2017-Nov-18 14:00N 40°47' E 024°42'0 0.0
2017-Nov-18 13:30N 40°47' E 024°42'4 8.4
2017-Nov-18 13:00N 40°51' E 024°40'2 4.0
2017-Nov-18 12:30N 40°51' E 024°42'1 1.7
2017-Nov-18 12:00N 40°51' E 024°41'5 9.6
2017-Nov-18 11:30N 40°47' E 024°42'0 0.0
2017-Nov-18 11:00N 40°47' E 024°42'0 0.0
2017-Nov-18 10:30N 40°47' E 024°42'0 0.0
2017-Nov-18 10:00N 40°47' E 024°42'0 0.0
2017-Nov-18 09:30N 40°47' E 024°42'0 0.0
2017-Nov-18 09:00N 40°47' E 024°42'0 0.0
2017-Nov-18 08:30N 40°47' E 024°42'0 0.0
2017-Nov-18 08:00N 40°47' E 024°42'1 2.1
2017-Nov-18 07:30N 40°48' E 024°42'4 7.4
2017-Nov-18 07:00N 40°51' E 024°42'0 0.0
2017-Nov-18 06:30N 40°51' E 024°42'2 4.7
2017-Nov-18 06:00N 40°49' E 024°42'2 4.7
2017-Nov-18 05:30N 40°47' E 024°42'4 8.5
2017-Nov-18 05:00N 40°51' E 024°40'2 3.7
2017-Nov-18 04:30N 40°51' E 024°42'1 2.3
2017-Nov-18 04:00N 40°51' E 024°41'4 7.7
2017-Nov-18 03:30N 40°47' E 024°42'0 0.0
2017-Nov-18 03:00N 40°47' E 024°42'0 0.0
2017-Nov-17 15:43N 40°47' E 024°42'2 7.9
2017-Nov-17 15:30N 40°48' E 024°41'3 6.6
2017-Nov-17 15:00N 40°51' E 024°42'1 1.7
2017-Nov-17 14:30N 40°52' E 024°41'5 9.6
2017-Nov-17 14:00N 40°47' E 024°42'0 0.0
2017-Nov-17 13:30N 40°47' E 024°42'0 0.0
2017-Nov-17 13:00N 40°47' E 024°42'0 0.0
2017-Nov-17 12:30N 40°47' E 024°42'4 8.0
2017-Nov-17 12:00N 40°51' E 024°40'2 3.2
2017-Nov-17 11:30N 40°51' E 024°42'1 1.8
2017-Nov-17 11:00N 40°51' E 024°41'5 9.5
2017-Nov-17 10:30N 40°47' E 024°42'0 0.0
2017-Nov-17 10:00N 40°47' E 024°42'0 0.5
2017-Nov-17 09:30N 40°47' E 024°43'0 0.0
2017-Nov-17 09:00N 40°47' E 024°43'0 0.0
2017-Nov-17 08:30N 40°47' E 024°43'0 0.0
2017-Nov-16 10:50N 40°47' E 024°43'0 1.1
2017-Nov-16 10:30N 40°47' E 024°42'0 0.2
2017-Nov-16 10:00N 40°47' E 024°42'0 0.0
2017-Nov-16 09:30N 40°47' E 024°42'0 0.0
2017-Nov-16 09:00N 40°47' E 024°42'0 0.0
2017-Nov-16 08:30N 40°47' E 024°42'0 0.0
2017-Nov-16 08:00N 40°47' E 024°42'0 0.0
2017-Nov-16 07:30N 40°47' E 024°42'0 0.0
2017-Nov-16 07:00N 40°47' E 024°42'0 0.0
2017-Nov-16 06:30N 40°47' E 024°42'2 4.9
2017-Nov-16 06:00N 40°49' E 024°40'3 5.7
2017-Nov-16 05:30N 40°51' E 024°42'0 0.0
2017-Nov-16 05:00N 40°51' E 024°42'0 0.0
2017-Nov-15 17:44N 40°51' E 024°42'1 4.5
2017-Nov-15 17:30N 40°52' E 024°41'5 9.7
2017-Nov-15 17:00N 40°47' E 024°42'0 0.0
2017-Nov-15 16:30N 40°47' E 024°42'0 0.0
2017-Nov-15 16:01N 40°47' E 024°42'3 6.2
2017-Nov-15 15:31N 40°49' E 024°40'3 5.8
2017-Nov-15 15:00N 40°51' E 024°42'1 2.1
2017-Nov-15 14:30N 40°51' E 024°41'5 9.2
2017-Nov-15 14:00N 40°47' E 024°42'0 0.0
2017-Nov-15 13:30N 40°47' E 024°42'1 1.0
2017-Nov-15 13:01N 40°47' E 024°42'4 8.5
2017-Nov-15 12:30N 40°51' E 024°39'2 4.6
2017-Nov-15 12:00N 40°51' E 024°42'1 2.0
2017-Nov-15 11:30N 40°51' E 024°41'4 9.0
2017-Nov-15 11:00N 40°47' E 024°42'0 0.5
2017-Nov-15 10:30N 40°47' E 024°43'0 0.0
2017-Nov-14 18:21N 40°47' E 024°43'1 3.2
2017-Nov-14 18:00N 40°48' E 024°42'4 7.7
2017-Nov-14 17:31N 40°51' E 024°42'0 0.1
2017-Nov-14 17:00N 40°51' E 024°42'1 1.6
2017-Nov-14 16:30N 40°52' E 024°41'5 9.7
2017-Nov-14 16:00N 40°47' E 024°42'0 0.0
2017-Nov-14 15:31N 40°47' E 024°42'0 0.0
2017-Nov-14 15:00N 40°47' E 024°42'0 0.0
2017-Nov-14 14:30N 40°47' E 024°42'0 0.0
2017-Nov-14 14:01N 40°47' E 024°42'5 0.1
2017-Nov-12 15:40N 40°51' E 024°42'1 5.2
2017-Nov-12 15:30N 40°52' E 024°41'5 9.6
2017-Nov-12 15:00N 40°47' E 024°42'0 0.0
2017-Nov-12 14:30N 40°47' E 024°42'0 0.0
2017-Nov-12 14:00N 40°47' E 024°42'0 0.0
2017-Nov-12 13:30N 40°47' E 024°42'3 7.0
2017-Nov-12 13:00N 40°50' E 024°41'1 3.0
2017-Nov-12 12:30N 40°51' E 024°42'1 1.7
2017-Nov-12 12:00N 40°52' E 024°41'5 9.6
2017-Nov-12 11:30N 40°47' E 024°42'0 0.6
2017-Nov-12 11:00N 40°47' E 024°43'0 0.0
2017-Nov-11 13:04N 40°47' E 024°43'0 0.1
2017-Nov-11 13:00N 40°47' E 024°43'4 7.3
2017-Nov-11 12:30N 40°50' E 024°41'1 3.0
2017-Nov-11 12:01N 40°51' E 024°42'1 1.2
2017-Nov-11 11:31N 40°52' E 024°41'5 9.6
2017-Nov-11 11:00N 40°47' E 024°42'0 0.0
2017-Nov-11 10:31N 40°47' E 024°42'1 1.4
2017-Nov-11 10:01N 40°47' E 024°42'4 7.9
2017-Nov-11 09:30N 40°51' E 024°42'0 0.0
2017-Nov-11 09:01N 40°51' E 024°42'2 4.8
2017-Nov-11 08:31N 40°49' E 024°42'2 4.6
2017-Nov-11 08:01N 40°47' E 024°42'0 0.0
2017-Nov-10 11:47N 40°47' E 024°42'1 3.1
2017-Nov-10 11:30N 40°48' E 024°42'4 7.7
2017-Nov-10 11:00N 40°51' E 024°42'0 0.0
2017-Nov-10 10:30N 40°51' E 024°42'3 5.3
2017-Nov-10 10:00N 40°49' E 024°42'2 4.1
2017-Nov-10 09:30N 40°47' E 024°42'0 0.0
2017-Nov-10 09:00N 40°47' E 024°42'0 0.0
2017-Nov-10 08:30N 40°47' E 024°42'0 0.0
2017-Nov-10 08:00N 40°47' E 024°42'0 0.0
2017-Nov-10 07:30N 40°47' E 024°42'0 0.0
2017-Nov-10 07:00N 40°47' E 024°42'0 0.0
2017-Nov-10 06:30N 40°47' E 024°42'0 0.0
2017-Nov-09 13:59N 40°47' E 024°42'4 7.4
2017-Nov-09 13:30N 40°50' E 024°41'1 2.7
2017-Nov-09 13:00N 40°51' E 024°42'2 4.7
2017-Nov-09 12:30N 40°49' E 024°42'2 4.7
2017-Nov-09 12:01N 40°47' E 024°42'0 0.0
2017-Nov-09 11:30N 40°47' E 024°42'0 0.0
2017-Nov-09 11:00N 40°47' E 024°42'3 7.0
2017-Nov-09 10:31N 40°50' E 024°41'2 3.1
2017-Nov-09 10:01N 40°51' E 024°42'1 1.5
2017-Nov-09 09:30N 40°52' E 024°41'  
Track history (hours):
 
Tides and Currents Weather Stations Pressure Air Temp Water Temp Dewpoint Dewpoint Depression Visibility Wind Speed Wind Dir Waves Ship Positions

Thassos I

Last reported at 2017-Nov-19 09:24 UTC. Time now 2017-Nov-19 16:05 UTC.
Position N 40°47' E 024°42'.

Length 98 m; draft 2.4 m.

Type: Passenger vessel. MMSI: 239361400.

Date/timePositionNaut miles runAvg speedWind from/ knotsBaromVisibWave heightAir tempDewpointWater temp
2017-Nov-19 09:24N 40°47' E 024°42'4 9.2
2017-Nov-19 09:00N 40°50' E 024°41'2 3.0
2017-Nov-19 08:30N 40°51' E 024°42'1 1.5
2017-Nov-19 08:00N 40°52' E 024°41'5 9.9
2017-Nov-19 07:30N 40°47' E 024°42'0 0.0
2017-Nov-19 07:00N 40°47' E 024°42'3 6.5
2017-Nov-19 06:30N 40°50' E 024°41'2 3.5
2017-Nov-19 06:00N 40°51' E 024°42'1 1.3
2017-Nov-19 05:30N 40°52' E 024°41'5 9.8
2017-Nov-19 05:00N 40°47' E 024°42'2 3.0
2017-Nov-19 04:30N 40°48' E 024°41'3 6.7
2017-Nov-19 04:00N 40°51' E 024°42'0 0.0
2017-Nov-19 03:30N 40°51' E 024°42'0 0.0
2017-Nov-18 15:32N 40°52' E 024°42'010.4
2017-Nov-18 15:30N 40°52' E 024°41'5 9.7
2017-Nov-18 15:00N 40°47' E 024°42'0 0.1
2017-Nov-18 14:30N 40°47' E 024°42'0 0.0
2017-Nov-18 14:00N 40°47' E 024°42'0 0.0
2017-Nov-18 13:30N 40°47' E 024°42'4 8.4
2017-Nov-18 13:00N 40°51' E 024°40'2 4.0
2017-Nov-18 12:30N 40°51' E 024°42'1 1.7
2017-Nov-18 12:00N 40°51' E 024°41'5 9.6
2017-Nov-18 11:30N 40°47' E 024°42'0 0.0
2017-Nov-18 11:00N 40°47' E 024°42'0 0.0
2017-Nov-18 10:30N 40°47' E 024°42'0 0.0
2017-Nov-18 10:00N 40°47' E 024°42'0 0.0
2017-Nov-18 09:30N 40°47' E 024°42'0 0.0
2017-Nov-18 09:00N 40°47' E 024°42'0 0.0
2017-Nov-18 08:30N 40°47' E 024°42'0 0.0
2017-Nov-18 08:00N 40°47' E 024°42'1 2.1
2017-Nov-18 07:30N 40°48' E 024°42'4 7.4
2017-Nov-18 07:00N 40°51' E 024°42'0 0.0
2017-Nov-18 06:30N 40°51' E 024°42'2 4.7
2017-Nov-18 06:00N 40°49' E 024°42'2 4.7
2017-Nov-18 05:30N 40°47' E 024°42'4 8.5
2017-Nov-18 05:00N 40°51' E 024°40'2 3.7
2017-Nov-18 04:30N 40°51' E 024°42'1 2.3
2017-Nov-18 04:00N 40°51' E 024°41'4 7.7
2017-Nov-18 03:30N 40°47' E 024°42'0 0.0
2017-Nov-18 03:00N 40°47' E 024°42'0 0.0
2017-Nov-17 15:43N 40°47' E 024°42'2 7.9
2017-Nov-17 15:30N 40°48' E 024°41'3 6.6
2017-Nov-17 15:00N 40°51' E 024°42'1 1.7
2017-Nov-17 14:30N 40°52' E 024°41'5 9.6
2017-Nov-17 14:00N 40°47' E 024°42'0 0.0
2017-Nov-17 13:30N 40°47' E 024°42'0 0.0
2017-Nov-17 13:00N 40°47' E 024°42'0 0.0
2017-Nov-17 12:30N 40°47' E 024°42'4 8.0
2017-Nov-17 12:00N 40°51' E 024°40'2 3.2
2017-Nov-17 11:30N 40°51' E 024°42'1 1.8
2017-Nov-17 11:00N 40°51' E 024°41'5 9.5
2017-Nov-17 10:30N 40°47' E 024°42'0 0.0
2017-Nov-17 10:00N 40°47' E 024°42'0 0.5
2017-Nov-17 09:30N 40°47' E 024°43'0 0.0
2017-Nov-17 09:00N 40°47' E 024°43'0 0.0
2017-Nov-17 08:30N 40°47' E 024°43'0 0.0
2017-Nov-16 10:50N 40°47' E 024°43'0 1.1
2017-Nov-16 10:30N 40°47' E 024°42'0 0.2
2017-Nov-16 10:00N 40°47' E 024°42'0 0.0
2017-Nov-16 09:30N 40°47' E 024°42'0 0.0
2017-Nov-16 09:00N 40°47' E 024°42'0 0.0
2017-Nov-16 08:30N 40°47' E 024°42'0 0.0
2017-Nov-16 08:00N 40°47' E 024°42'0 0.0
2017-Nov-16 07:30N 40°47' E 024°42'0 0.0
2017-Nov-16 07:00N 40°47' E 024°42'0 0.0
2017-Nov-16 06:30N 40°47' E 024°42'2 4.9
2017-Nov-16 06:00N 40°49' E 024°40'3 5.7
2017-Nov-16 05:30N 40°51' E 024°42'0 0.0
2017-Nov-16 05:00N 40°51' E 024°42'0 0.0
2017-Nov-15 17:44N 40°51' E 024°42'1 4.5
2017-Nov-15 17:30N 40°52' E 024°41'5 9.7
2017-Nov-15 17:00N 40°47' E 024°42'0 0.0
2017-Nov-15 16:30N 40°47' E 024°42'0 0.0
2017-Nov-15 16:01N 40°47' E 024°42'3 6.2
2017-Nov-15 15:31N 40°49' E 024°40'3 5.8
2017-Nov-15 15:00N 40°51' E 024°42'1 2.1
2017-Nov-15 14:30N 40°51' E 024°41'5 9.2
2017-Nov-15 14:00N 40°47' E 024°42'0 0.0
2017-Nov-15 13:30N 40°47' E 024°42'1 1.0
2017-Nov-15 13:01N 40°47' E 024°42'4 8.5
2017-Nov-15 12:30N 40°51' E 024°39'2 4.6
2017-Nov-15 12:00N 40°51' E 024°42'1 2.0
2017-Nov-15 11:30N 40°51' E 024°41'4 9.0
2017-Nov-15 11:00N 40°47' E 024°42'0 0.5
2017-Nov-15 10:30N 40°47' E 024°43'0 0.0
2017-Nov-14 18:21N 40°47' E 024°43'1 3.2
2017-Nov-14 18:00N 40°48' E 024°42'4 7.7
2017-Nov-14 17:31N 40°51' E 024°42'0 0.1
2017-Nov-14 17:00N 40°51' E 024°42'1 1.6
2017-Nov-14 16:30N 40°52' E 024°41'5 9.7
2017-Nov-14 16:00N 40°47' E 024°42'0 0.0
2017-Nov-14 15:31N 40°47' E 024°42'0 0.0
2017-Nov-14 15:00N 40°47' E 024°42'0 0.0
2017-Nov-14 14:30N 40°47' E 024°42'0 0.0
2017-Nov-14 14:01N 40°47' E 024°42'5 0.1
2017-Nov-12 15:40N 40°51' E 024°42'1 5.2
2017-Nov-12 15:30N 40°52' E 024°41'5 9.6
2017-Nov-12 15:00N 40°47' E 024°42'0 0.0
2017-Nov-12 14:30N 40°47' E 024°42'0 0.0
2017-Nov-12 14:00N 40°47' E 024°42'0 0.0
2017-Nov-12 13:30N 40°47' E 024°42'3 7.0
2017-Nov-12 13:00N 40°50' E 024°41'1 3.0
2017-Nov-12 12:30N 40°51' E 024°42'1 1.7
2017-Nov-12 12:00N 40°52' E 024°41'5 9.6
2017-Nov-12 11:30N 40°47' E 024°42'0 0.6
2017-Nov-12 11:00N 40°47' E 024°43'0 0.0
2017-Nov-11 13:04N 40°47' E 024°43'0 0.1
2017-Nov-11 13:00N 40°47' E 024°43'4 7.3
2017-Nov-11 12:30N 40°50' E 024°41'1 3.0
2017-Nov-11 12:01N 40°51' E 024°42'1 1.2
2017-Nov-11 11:31N 40°52' E 024°41'5 9.6
2017-Nov-11 11:00N 40°47' E 024°42'0 0.0
2017-Nov-11 10:31N 40°47' E 024°42'1 1.4
2017-Nov-11 10:01N 40°47' E 024°42'4 7.9
2017-Nov-11 09:30N 40°51' E 024°42'0 0.0
2017-Nov-11 09:01N 40°51' E 024°42'2 4.8
2017-Nov-11 08:31N 40°49' E 024°42'2 4.6
2017-Nov-11 08:01N 40°47' E 024°42'0 0.0
2017-Nov-10 11:47N 40°47' E 024°42'1 3.1
2017-Nov-10 11:30N 40°48' E 024°42'4 7.7
2017-Nov-10 11:00N 40°51' E 024°42'0 0.0
2017-Nov-10 10:30N 40°51' E 024°42'3 5.3
2017-Nov-10 10:00N 40°49' E 024°42'2 4.1
2017-Nov-10 09:30N 40°47' E 024°42'0 0.0
2017-Nov-10 09:00N 40°47' E 024°42'0 0.0
2017-Nov-10 08:30N 40°47' E 024°42'0 0.0
2017-Nov-10 08:00N 40°47' E 024°42'0 0.0
2017-Nov-10 07:30N 40°47' E 024°42'0 0.0
2017-Nov-10 07:00N 40°47' E 024°42'0 0.0
2017-Nov-10 06:30N 40°47' E 024°42'0 0.0
2017-Nov-09 13:59N 40°47' E 024°42'4 7.4
2017-Nov-09 13:30N 40°50' E 024°41'1 2.7
2017-Nov-09 13:00N 40°51' E 024°42'2 4.7
2017-Nov-09 12:30N 40°49' E 024°42'2 4.7
2017-Nov-09 12:01N 40°47' E 024°42'0 0.0
2017-Nov-09 11:30N 40°47' E 024°42'0 0.0
2017-Nov-09 11:00N 40°47' E 024°42'3 7.0
2017-Nov-09 10:31N 40°50' E 024°41'2 3.1
2017-Nov-09 10:01N 40°51' E 024°42'1 1.5
2017-Nov-09 09:30N 40°52' E 024°41'  

Dump ship's entire track history